Time;durP1;ratioP1;P1;durP2;ratioP2;P2;SDS_P1;SDS_P2;PMS_P1;PMS_P2;Temp;Humidity;BMP_temperature;BMP_pressure;BME280_temperature;BME280_humidity;BME280_pressure;Samples;Min_cycle;Max_cycle;Signal;HPM_P1;HPM_P2
2024/04/03 00:00:49;;;;;;;11.32;8.93;;;;;;;31.01;88.21;100955.50;4997983;28;66193;-32
2024/04/03 00:03:18;;;;;;;9.60;8.65;;;;;;;31.05;87.79;100959.44;5036990;28;70213;-30
2024/04/03 00:05:47;;;;;;;11.45;10.05;;;;;;;31.04;87.91;100968.63;5031476;28;66008;-31
2024/04/03 00:08:16;;;;;;;13.48;8.90;;;;;;;31.07;87.38;100961.94;5010416;28;70152;-30
2024/04/03 00:10:45;;;;;;;8.80;8.00;;;;;;;31.08;88.45;100969.00;5026052;28;66062;-30
2024/04/03 00:13:14;;;;;;;9.15;8.18;;;;;;;31.09;89.16;100965.22;5029878;28;70627;-31
2024/04/03 00:15:42;;;;;;;9.20;7.85;;;;;;;31.11;89.37;100968.56;5047002;28;66633;-31
2024/04/03 00:18:11;;;;;;;8.10;7.38;;;;;;;31.12;88.93;100970.22;5034736;28;70159;-30
2024/04/03 00:20:40;;;;;;;7.90;7.22;;;;;;;31.14;89.18;100979.78;5029425;28;66295;-30
2024/04/03 00:23:09;;;;;;;10.90;6.43;;;;;;;31.11;88.99;100982.94;5036391;28;69697;-30
2024/04/03 00:25:37;;;;;;;7.85;7.05;;;;;;;31.14;90.21;100979.78;5030870;28;66232;-31
2024/04/03 00:28:07;;;;;;;6.90;6.35;;;;;;;31.20;89.03;100979.94;5009190;28;69227;-31
2024/04/03 00:30:37;;;;;;;8.07;6.35;;;;;;;31.23;89.72;100988.50;5031348;28;66338;-32
2024/04/03 00:33:06;;;;;;;7.70;6.32;;;;;;;31.25;89.64;100991.78;5032086;28;69941;-30
2024/04/03 00:35:35;;;;;;;6.32;5.75;;;;;;;31.27;89.85;100988.88;5020069;28;66458;-31
2024/04/03 00:38:04;;;;;;;7.18;6.47;;;;;;;31.29;89.50;100993.03;5026115;28;70374;-29
2024/04/03 00:40:32;;;;;;;6.25;5.65;;;;;;;31.32;89.09;101008.03;5023676;28;66311;-30
2024/04/03 00:43:14;;;;;;;6.32;5.82;;;;;;;31.32;90.95;100997.19;5019891;28;69915;-30
2024/04/03 00:45:43;;;;;;;6.57;5.22;;;;;;;31.34;90.57;101000.47;5041578;28;64824;-30
2024/04/03 00:48:13;;;;;;;6.85;6.28;;;;;;;31.33;89.36;101012.38;5027279;28;70229;-33
2024/04/03 00:50:43;;;;;;;9.50;6.05;;;;;;;31.35;90.38;101018.41;5028402;28;66467;-31
2024/04/03 00:53:12;;;;;;;6.53;5.93;;;;;;;31.40;90.52;101018.63;5031629;28;70348;-31
2024/04/03 00:55:42;;;;;;;7.80;5.63;;;;;;;31.43;89.24;101023.59;5046878;28;66486;-31
2024/04/03 00:58:11;;;;;;;6.68;6.07;;;;;;;31.45;90.33;101031.50;5034278;28;69387;-30
2024/04/03 01:00:40;;;;;;;7.35;5.93;;;;;;;31.49;89.62;101030.84;5023292;28;66374;-29
2024/04/03 01:03:09;;;;;;;5.90;5.50;;;;;;;31.46;90.36;101031.28;5046649;28;70660;-32
2024/04/03 01:05:37;;;;;;;6.22;5.72;;;;;;;31.48;89.78;101025.63;5025428;28;66995;-32
2024/04/03 01:08:07;;;;;;;7.57;5.45;;;;;;;31.47;89.53;101027.50;5029497;28;69538;-31
2024/04/03 01:10:35;;;;;;;6.38;5.88;;;;;;;31.53;90.20;101032.03;5027108;28;66813;-30
2024/04/03 01:13:04;;;;;;;5.85;5.45;;;;;;;31.58;89.67;101044.94;5033325;28;69304;-30
2024/04/03 01:15:33;;;;;;;5.18;4.68;;;;;;;31.55;90.12;101040.78;5032365;28;66365;-30
2024/04/03 01:18:02;;;;;;;5.88;5.32;;;;;;;31.56;89.69;101047.88;5032557;28;69641;-30
2024/04/03 01:20:31;;;;;;;5.05;4.60;;;;;;;31.59;90.39;101042.03;5008882;28;65526;-30
2024/04/03 01:22:59;;;;;;;4.55;4.25;;;;;;;31.62;89.67;101040.72;5045749;28;69981;-32
2024/04/03 01:25:29;;;;;;;5.32;4.80;;;;;;;31.60;89.69;101035.53;5033351;28;66308;-33
2024/04/03 01:27:57;;;;;;;5.18;4.35;;;;;;;31.69;88.35;101036.09;5026608;28;69647;-30
2024/04/03 01:30:26;;;;;;;4.28;3.97;;;;;;;31.79;87.73;101041.03;5031467;28;65923;-29
2024/04/03 01:32:55;;;;;;;4.18;3.70;;;;;;;31.82;87.20;101037.88;5027925;28;70266;-30
2024/04/03 01:35:24;;;;;;;4.85;4.22;;;;;;;31.78;87.26;101029.31;5031034;28;66361;-31
2024/04/03 01:37:53;;;;;;;4.50;4.20;;;;;;;31.87;86.95;101043.44;5024953;28;70354;-30
2024/04/03 01:40:22;;;;;;;4.10;3.78;;;;;;;31.89;86.94;101051.34;5012938;28;66074;-34
2024/04/03 01:42:50;;;;;;;4.18;3.80;;;;;;;31.92;86.62;101046.34;5029115;28;70075;-30
2024/04/03 01:45:20;;;;;;;4.43;4.13;;;;;;;31.97;86.08;101043.78;5028108;28;65567;-30
2024/04/03 01:47:49;;;;;;;4.30;4.00;;;;;;;32.01;86.00;101045.00;5027177;28;70132;-30
2024/04/03 01:50:20;;;;;;;4.32;3.92;;;;;;;32.03;85.91;101048.31;5022078;28;65738;-30
2024/04/03 01:52:49;;;;;;;3.73;3.53;;;;;;;32.05;85.84;101046.22;5035627;28;70946;-31
2024/04/03 01:55:18;;;;;;;4.47;4.18;;;;;;;32.10;85.73;101047.44;5011092;28;65963;-31
2024/04/03 01:57:47;;;;;;;4.05;3.65;;;;;;;32.11;85.53;101049.91;5021845;28;70265;-30
2024/04/03 02:00:15;;;;;;;3.22;2.92;;;;;;;32.13;85.35;101058.66;5027190;28;65904;-30
2024/04/03 02:02:44;;;;;;;3.92;3.53;;;;;;;31.99;85.40;101019.97;5032173;28;69104;-30
2024/04/03 02:05:13;;;;;;;3.75;3.45;;;;;;;32.15;85.34;101039.41;5041647;28;66550;-30
2024/04/03 02:07:42;;;;;;;4.20;3.30;;;;;;;32.22;85.37;101046.44;5019672;28;69911;-34
2024/04/03 02:10:10;;;;;;;4.47;3.55;;;;;;;32.25;85.04;101045.16;5031746;28;66150;-32
2024/04/03 02:12:39;;;;;;;5.55;3.08;;;;;;;32.27;84.94;101037.63;5022445;28;70539;-33
2024/04/03 02:15:08;;;;;;;3.38;2.92;;;;;;;32.31;84.90;101044.25;5033420;28;65154;-29
2024/04/03 02:17:37;;;;;;;3.15;2.90;;;;;;;32.34;84.76;101032.94;5026988;28;69082;-32
2024/04/03 02:20:08;;;;;;;3.25;3.00;;;;;;;32.37;84.48;101028.94;5025120;28;65497;-31
2024/04/03 02:22:37;;;;;;;3.23;2.93;;;;;;;32.41;84.34;101033.72;5021729;28;70756;-30
2024/04/03 02:25:06;;;;;;;4.93;3.20;;;;;;;32.40;84.21;101021.19;5033540;28;65552;-31
2024/04/03 02:27:35;;;;;;;3.08;2.88;;;;;;;32.48;84.12;101034.50;5022923;28;70404;-31
2024/04/03 02:30:04;;;;;;;3.10;2.90;;;;;;;32.53;83.96;101038.41;5030577;28;67041;-30
2024/04/03 02:32:33;;;;;;;2.90;2.70;;;;;;;32.55;83.83;101031.69;5044318;28;69325;-30
2024/04/03 02:35:01;;;;;;;3.38;3.08;;;;;;;32.58;83.74;101027.69;5022736;28;66139;-30
2024/04/03 02:37:30;;;;;;;3.40;3.10;;;;;;;32.60;83.75;101028.31;5025403;28;70732;-31
2024/04/03 02:40:00;;;;;;;3.10;2.90;;;;;;;32.64;83.41;101035.75;5031686;28;66174;-30
2024/04/03 02:42:29;;;;;;;3.20;3.00;;;;;;;32.66;83.58;101035.53;5044374;28;70548;-34
2024/04/03 02:44:58;;;;;;;3.10;2.80;;;;;;;32.63;83.43;101015.09;5024039;28;66414;-31
2024/04/03 02:47:27;;;;;;;3.38;2.97;;;;;;;32.74;83.23;101020.81;5030909;28;70022;-31
2024/04/03 02:49:55;;;;;;;3.00;2.80;;;;;;;32.76;82.92;101022.22;5040547;28;66284;-31
2024/04/03 02:52:25;;;;;;;2.72;2.53;;;;;;;32.80;83.00;101023.41;5040334;28;70183;-31
2024/04/03 02:54:53;;;;;;;3.30;2.78;;;;;;;32.82;82.88;101018.59;5026884;28;66750;-30
2024/04/03 02:57:22;;;;;;;2.90;2.70;;;;;;;32.86;82.80;101018.94;5029299;28;69877;-31
2024/04/03 02:59:51;;;;;;;3.47;3.13;;;;;;;32.87;83.01;101021.41;5022222;28;66207;-31
2024/04/03 03:02:20;;;;;;;3.88;2.72;;;;;;;32.92;82.43;101013.41;5024289;28;69819;-30
2024/04/03 03:04:49;;;;;;;4.10;2.50;;;;;;;32.93;82.14;101009.66;5028669;28;66460;-30
2024/04/03 03:07:18;;;;;;;2.90;2.70;;;;;;;32.94;82.45;101005.88;5023185;28;70103;-30
2024/04/03 03:09:47;;;;;;;2.83;2.45;;;;;;;32.98;82.43;101011.66;5022248;28;66382;-32
2024/04/03 03:12:16;;;;;;;2.90;2.70;;;;;;;33.04;82.15;101004.50;5028845;28;69744;-31
2024/04/03 03:14:44;;;;;;;3.28;2.40;;;;;;;33.06;82.24;101013.25;5023481;28;65245;-30
2024/04/03 03:17:13;;;;;;;5.15;2.53;;;;;;;33.09;81.88;101008.19;5021519;28;70200;-30
2024/04/03 03:19:42;;;;;;;3.10;2.80;;;;;;;33.11;82.14;101010.69;5023895;28;66098;-30
2024/04/03 03:22:11;;;;;;;2.65;2.45;;;;;;;33.11;81.98;100999.81;5024516;28;70247;-30
2024/04/03 03:24:40;;;;;;;2.50;2.30;;;;;;;33.16;81.78;101008.09;5022294;28;65569;-30
2024/04/03 03:27:09;;;;;;;2.53;2.33;;;;;;;33.17;81.83;100998.88;5023882;28;69814;-30
2024/04/03 03:29:38;;;;;;;2.50;2.30;;;;;;;33.10;81.93;100995.44;5016242;28;65399;-31
2024/04/03 03:32:07;;;;;;;2.63;2.42;;;;;;;33.23;81.67;101007.97;5020222;28;69798;-30
2024/04/03 03:34:36;;;;;;;2.75;2.55;;;;;;;33.13;81.75;100975.94;5025984;28;66272;-30
2024/04/03 03:37:05;;;;;;;2.40;2.20;;;;;;;33.30;81.27;101009.53;5042411;28;69650;-33
2024/04/03 03:39:34;;;;;;;3.28;2.53;;;;;;;33.32;81.40;100996.53;5016844;28;67068;-31
2024/04/03 03:42:03;;;;;;;2.47;2.28;;;;;;;33.35;81.35;100989.81;5019211;28;69671;-30
2024/04/03 03:44:32;;;;;;;2.80;2.53;;;;;;;33.37;81.11;100993.91;5027145;28;65625;-31
2024/04/03 03:47:01;;;;;;;2.70;2.50;;;;;;;33.36;81.14;100986.00;5012233;28;70163;-30
2024/04/03 03:55:07;;;;;;;2.38;2.15;;;;;;;33.47;80.69;100984.38;5023399;28;66251;-30
2024/04/03 03:57:36;;;;;;;1.97;1.77;;;;;;;33.48;80.92;100977.84;5025650;28;70877;-31
2024/04/03 04:00:05;;;;;;;4.00;2.25;;;;;;;33.48;80.74;100973.25;5040238;28;66631;-31
2024/04/03 04:02:34;;;;;;;3.17;2.65;;;;;;;33.53;80.78;100972.56;5054555;28;70537;-30
2024/04/03 04:05:04;;;;;;;2.25;1.90;;;;;;;33.57;80.53;100971.03;5036662;28;66730;-31
2024/04/03 04:07:34;;;;;;;3.13;2.20;;;;;;;33.57;80.54;100962.88;5034977;28;70850;-31
2024/04/03 04:10:05;;;;;;;3.15;2.22;;;;;;;33.56;80.38;100953.06;5023659;28;66870;-31
2024/04/03 04:12:34;;;;;;;;;;;;;;;33.53;80.64;100954.38;5018780;28;69377;-33
2024/04/03 04:15:03;;;;;;;1.88;1.77;;;;;;;33.62;80.55;100943.94;5030392;28;66658;-33
2024/04/03 04:17:32;;;;;;;2.30;2.08;;;;;;;33.65;80.50;100940.75;5045632;28;70173;-31
2024/04/03 04:20:29;;;;;;;2.33;1.95;;;;;;;33.65;80.16;100940.75;5033371;28;65818;-33
2024/04/03 04:22:58;;;;;;;1.90;1.80;;;;;;;33.70;80.19;100935.44;5046025;28;69338;-30
2024/04/03 04:25:27;;;;;;;2.28;2.08;;;;;;;33.71;80.18;100928.94;5028215;28;66815;-30
2024/04/03 04:27:56;;;;;;;1.90;1.80;;;;;;;33.74;80.09;100916.72;5023470;28;70278;-32
2024/04/03 04:30:25;;;;;;;2.05;1.85;;;;;;;33.77;79.94;100911.66;5020223;28;66748;-32
2024/04/03 04:32:54;;;;;;;1.70;1.60;;;;;;;33.79;79.99;100903.25;5038866;28;68763;-30
2024/04/03 04:35:23;;;;;;;2.10;2.00;;;;;;;33.81;80.00;100904.66;5051479;28;65887;-31
2024/04/03 04:37:52;;;;;;;2.65;1.63;;;;;;;33.84;79.90;100894.38;5048748;28;69998;-32
2024/04/03 04:40:21;;;;;;;2.30;1.67;;;;;;;33.85;79.79;100896.00;5030383;28;66079;-31
2024/04/03 04:42:51;;;;;;;3.90;1.60;;;;;;;33.86;79.74;100897.69;5033044;28;70557;-32
2024/04/03 04:45:29;;;;;;;1.92;1.75;;;;;;;33.89;79.60;100887.13;5047858;28;66567;-31
2024/04/03 04:47:59;;;;;;;2.92;1.60;;;;;;;33.94;79.61;100879.06;5027483;28;70003;-33
2024/04/03 04:50:43;;;;;;;1.70;1.60;;;;;;;33.94;79.55;100879.06;5031195;28;66718;-31
2024/04/03 04:53:13;;;;;;;3.30;1.58;;;;;;;33.99;79.49;100875.59;5026336;28;70375;-30
2024/04/03 04:55:42;;;;;;;5.43;1.70;;;;;;;34.01;79.36;100868.03;5032210;28;66658;-32
2024/04/03 04:58:11;;;;;;;2.22;1.92;;;;;;;34.02;79.67;100864.28;5023086;28;69880;-31
2024/04/03 05:00:40;;;;;;;2.33;1.90;;;;;;;34.05;79.38;100869.25;5029346;28;66072;-30
2024/04/03 05:03:09;;;;;;;2.60;2.15;;;;;;;34.00;79.33;100841.91;5019570;28;70376;-31
2024/04/03 05:05:38;;;;;;;2.28;2.08;;;;;;;34.07;79.28;100849.94;5030216;28;65533;-31
2024/04/03 05:08:07;;;;;;;1.35;1.25;;;;;;;34.07;79.39;100845.31;5028682;28;70106;-32
2024/04/03 05:10:37;;;;;;;1.77;1.67;;;;;;;34.10;79.49;100833.13;5030411;28;66146;-31
2024/04/03 05:13:06;;;;;;;1.98;1.80;;;;;;;34.14;79.21;100828.84;5027362;28;69969;-31
2024/04/03 05:15:35;;;;;;;2.10;1.63;;;;;;;34.14;78.88;100824.22;5035935;28;65680;-30
2024/04/03 05:18:06;;;;;;;2.22;1.50;;;;;;;34.18;79.11;100817.22;5039451;28;70189;-32
2024/04/03 05:20:35;;;;;;;1.67;1.58;;;;;;;34.21;79.11;100824.94;5018672;28;66497;-30
2024/04/03 05:23:05;;;;;;;1.95;1.70;;;;;;;34.23;79.00;100817.31;5026391;28;69158;-32
2024/04/03 05:25:34;;;;;;;1.60;1.50;;;;;;;34.24;79.08;100813.53;5042606;28;65261;-32
2024/04/03 05:28:05;;;;;;;1.45;1.35;;;;;;;34.26;78.93;100802.38;5032899;28;70022;-31
2024/04/03 05:30:38;;;;;;;1.38;1.27;;;;;;;34.28;78.65;100802.16;5007931;28;65645;-32
2024/04/03 05:33:07;;;;;;;2.00;1.85;;;;;;;34.32;78.51;100797.84;5025674;28;70367;-30
2024/04/03 05:35:36;;;;;;;4.10;1.40;;;;;;;34.33;78.43;100788.63;5047723;28;65785;-31
2024/04/03 05:38:05;;;;;;;1.50;1.40;;;;;;;34.35;78.23;100775.56;5024177;28;70151;-30
2024/04/03 05:40:35;;;;;;;2.22;1.40;;;;;;;34.37;78.28;100778.88;5023646;28;65068;-32
2024/04/03 05:43:07;;;;;;;;;;;;;;;34.29;78.35;100773.84;5019950;28;69702;-31
2024/04/03 05:45:36;;;;;;;1.90;1.70;;;;;;;34.45;78.20;100770.31;5021772;28;65005;-31
2024/04/03 05:48:05;;;;;;;6.55;1.40;;;;;;;34.43;78.10;100756.94;5022865;28;70189;-31
2024/04/03 05:50:35;;;;;;;4.30;1.30;;;;;;;34.47;78.26;100758.09;5008402;28;66280;-30
2024/04/03 05:53:04;;;;;;;1.60;1.30;;;;;;;34.53;77.73;100756.28;5016997;28;69817;-30
2024/04/03 05:55:33;;;;;;;1.45;1.35;;;;;;;34.54;77.95;100748.94;5024237;28;66247;-31
2024/04/03 05:58:02;;;;;;;1.60;1.50;;;;;;;34.47;78.02;100730.88;5021720;28;70608;-31
2024/04/03 06:00:32;;;;;;;2.28;1.67;;;;;;;34.60;78.06;100746.09;5022483;28;66716;-35
2024/04/03 06:03:01;;;;;;;1.45;1.35;;;;;;;34.61;77.49;100741.47;5019481;28;69960;-32
2024/04/03 06:05:30;;;;;;;2.47;1.20;;;;;;;34.65;77.41;100732.50;5023424;28;65175;-31
2024/04/03 06:07:59;;;;;;;3.55;1.20;;;;;;;34.67;77.59;100730.38;5005216;28;70426;-31
2024/04/03 06:10:28;;;;;;;1.38;1.27;;;;;;;34.68;77.36;100721.13;5022412;28;65972;-31
2024/04/03 06:12:57;;;;;;;1.17;1.08;;;;;;;34.72;77.07;100715.19;5024019;28;69655;-31
2024/04/03 06:15:28;;;;;;;1.55;1.42;;;;;;;34.75;77.59;100714.69;5020378;28;67898;-32
2024/04/03 06:17:57;;;;;;;2.03;1.20;;;;;;;34.80;77.48;100718.31;5019338;28;70008;-30
2024/04/03 06:20:26;;;;;;;1.70;1.00;;;;;;;34.83;77.48;100706.09;5026928;28;65891;-31
2024/04/03 06:22:55;;;;;;;1.40;0.95;;;;;;;34.88;77.26;100703.41;5005945;28;70095;-31
2024/04/03 06:25:26;;;;;;;2.05;1.63;;;;;;;34.89;77.18;100695.00;5010237;28;65561;-31
2024/04/03 06:27:55;;;;;;;1.33;1.10;;;;;;;34.95;76.54;100698.59;5034486;28;69141;-33
2024/04/03 06:30:24;;;;;;;2.60;1.00;;;;;;;34.98;76.34;100692.66;5014132;28;66417;-31
2024/04/03 06:32:54;;;;;;;1.17;1.08;;;;;;;35.01;76.36;100694.84;5032458;28;70393;-31
2024/04/03 06:35:24;;;;;;;1.25;1.08;;;;;;;35.05;76.44;100693.28;5026362;28;66345;-31
2024/04/03 06:37:53;;;;;;;1.33;1.00;;;;;;;35.09;76.16;100677.28;5012455;28;69867;-32
2024/04/03 06:40:22;;;;;;;1.65;1.00;;;;;;;35.10;76.11;100668.00;5026557;28;65857;-35
2024/04/03 06:42:51;;;;;;;2.97;1.10;;;;;;;35.20;76.42;100664.59;5012217;28;69770;-32
2024/04/03 06:45:22;;;;;;;2.85;1.40;;;;;;;35.23;75.90;100664.06;5012674;28;66365;-31
2024/04/03 06:47:51;;;;;;;;;;;;;;;35.19;75.40;100671.09;5033404;28;70070;-31
2024/04/03 06:50:20;;;;;;;1.35;0.93;;;;;;;35.33;75.46;100666.94;4999000;28;66150;-33
2024/04/03 06:52:49;;;;;;;1.20;0.90;;;;;;;35.38;75.23;100664.22;5039413;28;70161;-31
2024/04/03 06:55:18;;;;;;;2.80;1.05;;;;;;;35.40;75.02;100656.63;5022858;28;66280;-32
2024/04/03 06:57:48;;;;;;;1.52;0.93;;;;;;;35.47;75.08;100657.25;5025121;28;69194;-31
2024/04/03 07:00:19;;;;;;;1.35;0.82;;;;;;;35.51;75.47;100652.91;5027833;28;65790;-30
2024/04/03 07:02:48;;;;;;;1.40;1.10;;;;;;;35.58;75.59;100648.13;5022618;28;69435;-30
2024/04/03 07:05:16;;;;;;;1.25;0.80;;;;;;;35.62;74.56;100645.69;5028677;28;65692;-32
2024/04/03 07:07:46;;;;;;;1.10;1.00;;;;;;;35.67;74.93;100634.00;5021443;28;70248;-30
2024/04/03 07:10:15;;;;;;;1.02;0.90;;;;;;;35.68;74.36;100619.28;5028916;28;65444;-31
2024/04/03 07:12:44;;;;;;;1.30;0.90;;;;;;;35.78;74.96;100630.28;5042438;28;69323;-31
2024/04/03 07:15:13;;;;;;;0.82;0.80;;;;;;;35.71;74.10;100595.03;5030986;28;65943;-31
2024/04/03 07:17:42;;;;;;;1.02;0.80;;;;;;;35.91;74.55;100618.94;5022640;28;70153;-31
2024/04/03 07:20:11;;;;;;;1.73;0.90;;;;;;;35.96;74.58;100610.78;5023895;28;65934;-31
2024/04/03 07:22:44;;;;;;;1.75;0.80;;;;;;;36.02;73.79;100612.47;5023405;28;43770;-31
2024/04/03 07:25:15;;;;;;;1.05;1.00;;;;;;;36.05;73.52;100602.94;5033275;28;66589;-30
2024/04/03 07:27:46;;;;;;;0.93;0.80;;;;;;;35.97;73.30;100571.50;5023337;28;69501;-31
2024/04/03 07:30:15;;;;;;;0.97;0.70;;;;;;;36.14;73.30;100592.38;5033789;28;66000;-31
2024/04/03 07:32:45;;;;;;;1.00;0.68;;;;;;;36.19;73.27;100576.00;5034396;28;70197;-30
2024/04/03 07:35:15;;;;;;;1.88;0.65;;;;;;;36.33;73.30;100582.66;5027579;28;65937;-30
2024/04/03 07:37:46;;;;;;;0.70;0.60;;;;;;;36.36;72.62;100584.88;5029839;28;69998;-32
2024/04/03 07:40:18;;;;;;;1.38;0.77;;;;;;;36.41;73.11;100578.59;5025977;28;66561;-30
2024/04/03 07:42:47;;;;;;;1.25;0.65;;;;;;;36.36;72.25;100560.28;5026451;28;69624;-32
2024/04/03 07:45:17;;;;;;;0.73;0.60;;;;;;;36.51;72.41;100575.09;5056342;28;66056;-30
2024/04/03 07:47:48;;;;;;;1.17;0.63;;;;;;;36.51;71.90;100558.69;5026425;28;69538;-31
2024/04/03 07:50:17;;;;;;;3.92;0.70;;;;;;;36.56;72.36;100558.75;5035917;28;66500;-32
2024/04/03 07:52:46;;;;;;;1.33;0.80;;;;;;;36.63;71.46;100565.59;5029705;28;70685;-31
2024/04/03 07:55:18;;;;;;;1.05;0.70;;;;;;;36.71;71.39;100564.25;5046253;28;65673;-32
2024/04/03 07:57:47;;;;;;;1.25;0.70;;;;;;;36.76;71.74;100556.09;5031758;28;69676;-32
2024/04/03 08:00:16;;;;;;;1.10;0.80;;;;;;;36.76;71.23;100553.34;5024605;28;66764;-32
2024/04/03 08:02:46;;;;;;;0.77;0.70;;;;;;;36.85;71.49;100554.47;5026895;28;70152;-31
2024/04/03 08:05:15;;;;;;;0.90;0.90;;;;;;;36.88;71.20;100540.25;5030483;28;65760;-32
2024/04/03 08:07:44;;;;;;;1.02;0.80;;;;;;;36.90;70.83;100542.75;5049999;28;70254;-34
2024/04/03 08:10:13;;;;;;;2.10;1.02;;;;;;;37.00;71.28;100552.84;5025510;28;66952;-31
2024/04/03 08:12:42;;;;;;;0.70;0.65;;;;;;;37.00;70.64;100544.66;5021912;28;70632;-32
2024/04/03 08:15:13;;;;;;;1.13;0.98;;;;;;;36.89;70.74;100522.78;5032530;28;66419;-30
2024/04/03 08:17:43;;;;;;;0.85;0.75;;;;;;;37.09;70.35;100552.09;5045032;28;69940;-31
2024/04/03 08:20:12;;;;;;;1.70;0.80;;;;;;;37.12;70.33;100545.28;5020049;28;66759;-33
2024/04/03 08:22:41;;;;;;;0.98;0.88;;;;;;;37.17;70.19;100547.16;5044467;28;70555;-33
2024/04/03 08:25:12;;;;;;;2.05;0.60;;;;;;;37.19;69.94;100540.34;5030038;28;65383;-32
2024/04/03 08:27:41;;;;;;;1.52;0.70;;;;;;;37.19;70.28;100545.81;5032640;28;70729;-33
2024/04/03 08:30:10;;;;;;;1.42;0.75;;;;;;;37.21;69.70;100538.16;5027611;28;66117;-31
2024/04/03 08:32:39;;;;;;;0.98;0.80;;;;;;;37.24;69.68;100542.28;5027764;28;70215;-32
2024/04/03 08:35:08;;;;;;;0.88;0.73;;;;;;;37.27;69.74;100541.72;5028096;28;66725;-32
2024/04/03 08:37:38;;;;;;;0.90;0.70;;;;;;;37.30;69.16;100542.00;5026102;28;69795;-31
2024/04/03 08:40:12;;;;;;;1.13;0.90;;;;;;;37.27;69.06;100539.81;5031770;28;65237;-31
2024/04/03 08:42:41;;;;;;;1.77;0.90;;;;;;;37.32;69.32;100539.00;5031990;28;70294;-32
2024/04/03 08:45:13;;;;;;;1.13;0.80;;;;;;;37.30;68.91;100533.78;5027768;28;65709;-32
2024/04/03 08:47:42;;;;;;;1.13;0.80;;;;;;;37.38;69.15;100539.81;5044503;28;70166;-31
2024/04/03 08:50:14;;;;;;;2.05;0.70;;;;;;;37.44;68.92;100535.97;5028074;28;66759;-34
2024/04/03 08:52:43;;;;;;;1.02;0.93;;;;;;;37.46;69.04;100528.34;5026368;28;70012;-35
2024/04/03 08:55:15;;;;;;;1.45;0.90;;;;;;;37.51;68.74;100531.91;5017913;28;65979;-35
2024/04/03 08:57:44;;;;;;;1.35;0.80;;;;;;;37.54;68.86;100528.63;5028561;28;70227;-35
2024/04/03 09:00:14;;;;;;;2.50;0.85;;;;;;;37.32;69.15;100496.03;5018382;28;66249;-33
2024/04/03 09:02:43;;;;;;;1.13;0.75;;;;;;;37.47;68.88;100530.81;5006791;28;69907;-35
2024/04/03 09:05:13;;;;;;;1.05;0.80;;;;;;;37.51;68.95;100531.91;5028290;28;66303;-33
2024/04/03 09:07:42;;;;;;;0.98;0.75;;;;;;;37.49;68.53;100519.59;5007711;28;70615;-31
2024/04/03 09:10:11;;;;;;;1.02;0.90;;;;;;;37.54;68.99;100530.56;5028280;28;66002;-32
2024/04/03 09:12:42;;;;;;;0.75;0.63;;;;;;;37.54;68.25;100522.34;5037779;28;70265;-30
2024/04/03 09:15:11;;;;;;;1.40;0.82;;;;;;;37.53;68.58;100528.91;5027008;28;66034;-31
2024/04/03 09:17:40;;;;;;;1.40;0.82;;;;;;;37.51;68.08;100526.44;5030933;28;69915;-31
2024/04/03 09:20:10;;;;;;;1.75;0.98;;;;;;;37.44;67.67;100525.03;5021143;28;66245;-32
2024/04/03 09:22:40;;;;;;;1.83;1.10;;;;;;;37.42;68.07;100529.97;5019302;28;70988;-31
2024/04/03 09:25:09;;;;;;;6.05;1.48;;;;;;;37.40;68.38;100524.78;5045636;28;65442;-31
2024/04/03 09:27:39;;;;;;;4.47;1.45;;;;;;;37.37;68.15;100529.97;5029202;28;70892;-32
2024/04/03 09:30:12;;;;;;;4.63;1.45;;;;;;;37.09;68.12;100485.66;5030631;28;65691;-31
2024/04/03 09:32:41;;;;;;;3.78;1.25;;;;;;;37.23;68.36;100508.63;5012294;28;70167;-31
2024/04/03 09:35:12;;;;;;;3.63;1.55;;;;;;;37.16;68.56;100501.78;5031579;28;67184;-31
2024/04/03 09:37:41;;;;;;;1.23;1.13;;;;;;;37.33;68.43;100525.06;5030026;28;69743;-31
2024/04/03 09:40:10;;;;;;;2.63;1.55;;;;;;;37.28;68.32;100527.78;5044954;28;65984;-32
2024/04/03 09:42:40;;;;;;;4.20;1.50;;;;;;;37.25;68.51;100533.81;5026847;28;70192;-32
2024/04/03 09:45:09;;;;;;;3.70;1.17;;;;;;;37.24;68.75;100547.75;5032447;28;66120;-31
2024/04/03 09:47:41;;;;;;;4.82;1.20;;;;;;;37.25;68.50;100542.00;5031106;28;69635;-31
2024/04/03 09:50:13;;;;;;;7.45;1.50;;;;;;;37.04;68.66;100515.72;5015213;28;66423;-30
2024/04/03 09:52:43;;;;;;;2.70;1.60;;;;;;;37.16;68.70;100535.41;5016988;28;69913;-32
2024/04/03 09:55:12;;;;;;;5.05;1.55;;;;;;;37.17;69.47;100545.28;5044362;28;66703;-32
2024/04/03 09:57:41;;;;;;;4.32;2.00;;;;;;;37.14;69.21;100545.84;5022000;28;70608;-31
2024/04/03 10:00:13;;;;;;;2.83;1.85;;;;;;;36.95;68.82;100528.28;5025819;28;65789;-31
2024/04/03 10:02:51;;;;;;;5.25;2.10;;;;;;;37.06;68.76;100549.09;5025893;28;70236;-30
2024/04/03 10:05:41;;;;;;;8.73;2.10;;;;;;;37.03;69.19;100552.38;5022512;28;66643;-30
2024/04/03 10:08:12;;;;;;;4.82;2.05;;;;;;;36.86;69.55;100525.22;5001036;28;69381;-31
2024/04/03 10:10:47;;;;;;;3.25;1.80;;;;;;;37.03;69.34;100555.94;5022719;28;65776;-31
2024/04/03 10:13:24;;;;;;;6.28;2.08;;;;;;;36.95;69.25;100555.59;5031256;28;70288;-31
2024/04/03 10:16:04;;;;;;;4.93;1.90;;;;;;;36.95;69.40;100561.06;5027485;28;65491;-30
2024/04/03 10:18:40;;;;;;;3.28;1.75;;;;;;;36.70;69.26;100527.09;5031222;28;70597;-31
2024/04/03 10:21:12;;;;;;;4.15;1.95;;;;;;;36.91;69.57;100564.31;5010132;28;65206;-38
2024/04/03 10:23:55;;;;;;;3.47;1.92;;;;;;;36.83;70.18;100559.41;5020119;28;71956;-31
2024/04/03 10:26:26;;;;;;;3.85;1.95;;;;;;;36.87;69.81;100559.69;5021115;28;66317;-31
2024/04/03 10:29:01;;;;;;;4.13;2.53;;;;;;;36.84;70.29;100566.50;5025515;28;69237;-31
2024/04/03 10:31:30;;;;;;;2.80;2.05;;;;;;;36.83;70.31;100564.88;5024923;28;66537;-30
2024/04/03 10:33:58;;;;;;;6.97;2.47;;;;;;;36.79;70.06;100562.94;5024531;28;69758;-31
2024/04/03 10:36:27;;;;;;;2.95;2.08;;;;;;;36.80;70.12;100564.56;5025447;28;66287;-33
2024/04/03 10:38:57;;;;;;;2.28;2.00;;;;;;;36.75;69.88;100565.38;5026587;28;70466;-30
2024/04/03 10:41:26;;;;;;;8.05;2.08;;;;;;;36.71;70.33;100577.94;5021398;28;65944;-31
2024/04/03 10:43:54;;;;;;;7.28;2.08;;;;;;;36.71;70.28;100583.41;5025833;28;70350;-31
2024/04/03 10:46:24;;;;;;;2.25;1.88;;;;;;;36.64;70.84;100578.19;5023245;28;67975;-32
2024/04/03 10:48:55;;;;;;;2.25;1.85;;;;;;;36.62;70.40;100574.06;5025568;28;70172;-31
2024/04/03 10:51:28;;;;;;;6.05;1.73;;;;;;;36.56;70.45;100575.97;4996172;28;66086;-30
2024/04/03 10:53:57;;;;;;;4.13;1.63;;;;;;;36.41;71.09;100557.56;4993213;28;69801;-32
2024/04/03 10:56:27;;;;;;;2.33;1.92;;;;;;;36.50;71.06;100581.63;5024793;28;65234;-35
2024/04/03 10:58:57;;;;;;;3.05;2.00;;;;;;;36.47;71.07;100586.56;5027251;28;69918;-31
2024/04/03 11:01:30;;;;;;;2.25;1.75;;;;;;;36.39;71.29;100597.16;5013573;28;66208;-32
2024/04/03 11:04:04;;;;;;;2.42;1.60;;;;;;;36.45;70.87;100591.47;5024301;28;70326;-32
2024/04/03 11:06:34;;;;;;;2.10;1.63;;;;;;;36.43;71.11;100604.56;5025478;28;66145;-31
2024/04/03 11:09:04;;;;;;;3.83;1.60;;;;;;;36.26;71.83;100583.97;5026232;28;69640;-31
2024/04/03 11:11:37;;;;;;;2.42;1.70;;;;;;;36.37;71.50;100599.34;5034075;28;66135;-34
2024/04/03 11:14:06;;;;;;;2.58;1.80;;;;;;;36.31;71.73;100606.69;5028817;28;69731;-31
2024/04/03 11:16:36;;;;;;;7.25;1.90;;;;;;;36.28;72.24;100599.00;5032783;28;66332;-35
2024/04/03 11:19:05;;;;;;;3.67;1.90;;;;;;;36.29;72.39;100602.56;5037835;28;70198;-31
2024/04/03 11:21:34;;;;;;;4.82;1.85;;;;;;;36.20;72.14;100610.44;5041011;28;66028;-33
2024/04/03 11:24:09;;;;;;;2.17;1.85;;;;;;;36.14;72.71;100614.22;5023264;28;70558;-34
2024/04/03 11:26:38;;;;;;;5.57;1.95;;;;;;;36.19;73.25;100619.69;5036032;28;65549;-37
2024/04/03 11:29:31;;;;;;;2.92;2.05;;;;;;;36.14;73.65;100633.34;5046368;28;70478;-34
2024/04/03 11:32:00;;;;;;;2.25;1.70;;;;;;;36.17;72.59;100635.53;5030814;28;66377;-35
2024/04/03 11:34:29;;;;;;;5.38;1.60;;;;;;;36.08;73.57;100631.63;5033499;28;70126;-34
2024/04/03 11:36:59;;;;;;;3.28;1.67;;;;;;;36.12;73.57;100630.03;5026746;28;65690;-35
2024/04/03 11:39:30;;;;;;;2.88;1.60;;;;;;;36.08;73.51;100637.09;5031339;28;69996;-36
2024/04/03 11:42:01;;;;;;;;;;;;;;;35.97;74.06;100647.91;5030074;28;66463;-35
2024/04/03 11:44:29;;;;;;;3.45;1.38;;;;;;;36.06;73.49;100644.75;5032003;28;70432;-35